createdAt,value
2018-12-01T00:00:47.984Z,38.55
2018-12-01T00:03:20.889Z,34.23
2018-12-01T00:06:03.941Z,30.88
2018-12-01T00:11:20.449Z,33.45
2018-12-01T00:14:01.385Z,36.98
2018-12-01T00:16:36.425Z,37.85
2018-12-01T00:19:17.301Z,41.58
2018-12-01T00:21:49.454Z,38.25
2018-12-01T00:24:24.945Z,47.35
2018-12-01T00:27:00.097Z,36.68
2018-12-01T00:29:37.178Z,40.65
2018-12-01T00:32:13.017Z,34.78
2018-12-01T00:34:44.093Z,45.38
2018-12-01T00:37:14.869Z,42.35
2018-12-01T00:39:52.069Z,41.58
2018-12-01T00:42:27.366Z,42.50
2018-12-01T00:45:00.418Z,36.30
2018-12-01T00:47:32.542Z,58.85
2018-12-01T00:50:07.589Z,47.48
2018-12-01T00:52:43.495Z,58.73
2018-12-01T00:55:18.004Z,63.02
2018-12-01T00:57:50.809Z,47.33
2018-12-01T01:00:26.784Z,90.00
2018-12-01T01:03:02.005Z,80.15
2018-12-01T01:05:36.408Z,76.22
2018-12-01T01:08:10.797Z,44.73
2018-12-01T01:10:47.181Z,54.48
2018-12-01T01:13:20.379Z,88.95
2018-12-01T01:15:58.742Z,72.35
2018-12-01T01:21:13.493Z,52.67
2018-12-01T01:23:49.261Z,65.67
2018-12-01T01:26:27.601Z,72.85
2018-12-01T01:28:58.433Z,88.97
2018-12-01T01:31:36.093Z,97.47
2018-12-01T01:34:11.365Z,52.70
2018-12-01T01:36:46.589Z,58.85
2018-12-01T01:39:19.269Z,64.97
2018-12-01T01:41:53.881Z,72.87
2018-12-01T01:44:34.269Z,54.80
2018-12-01T01:47:04.567Z,79.65
2018-12-01T01:49:38.481Z,50.63
2018-12-01T01:52:10.757Z,45.03
2018-12-01T01:54:43.804Z,77.67
2018-12-01T01:57:15.321Z,64.05
2018-12-01T01:59:47.478Z,93.52
2018-12-01T02:02:19.581Z,66.50
2018-12-01T02:04:54.566Z,62.48
2018-12-01T02:07:28.146Z,83.35
2018-12-01T02:10:02.177Z,91.20
2018-12-01T02:12:32.761Z,80.47
2018-12-01T02:15:04.946Z,93.50
2018-12-01T02:17:37.534Z,104.92
2018-12-01T02:20:18.554Z,88.35
2018-12-01T02:22:50.985Z,66.12
2018-12-01T02:25:23.800Z,111.05
2018-12-01T02:27:58.230Z,86.50
2018-12-01T02:30:29.208Z,111.95
2018-12-01T02:33:01.235Z,88.07
2018-12-01T02:35:37.978Z,80.53
2018-12-01T02:38:08.261Z,64.22
2018-12-01T02:40:39.422Z,76.77
2018-12-01T02:43:10.222Z,88.42
2018-12-01T02:45:56.694Z,125.35
2018-12-01T02:48:30.002Z,77.72
2018-12-01T02:51:01.147Z,108.10
2018-12-01T02:53:33.562Z,76.80
2018-12-01T02:56:06.194Z,62.35
2018-12-01T02:58:41.761Z,90.45
2018-12-01T03:01:15.774Z,96.22
2018-12-01T03:03:48.150Z,70.37
2018-12-01T03:06:21.322Z,73.97
2018-12-01T03:08:53.826Z,103.35
2018-12-01T03:11:26.698Z,79.67
2018-12-01T03:13:58.826Z,89.83
2018-12-01T03:16:30.038Z,67.15
2018-12-01T03:19:06.382Z,107.22
2018-12-01T03:21:41.587Z,86.20
2018-12-01T03:24:11.935Z,69.67
2018-12-01T03:26:46.498Z,69.47
2018-12-01T03:29:18.598Z,115.30
2018-12-01T03:31:51.988Z,84.50
2018-12-01T03:34:22.982Z,105.87
2018-12-01T03:36:53.738Z,98.82
2018-12-01T03:39:27.494Z,115.20
2018-12-01T03:42:01.639Z,87.90
2018-12-01T03:44:35.826Z,67.82
2018-12-01T03:47:06.786Z,86.90
2018-12-01T03:49:41.882Z,131.72
2018-12-01T03:52:17.166Z,91.60
2018-12-01T03:54:53.534Z,61.60
2018-12-01T03:57:28.146Z,127.80
2018-12-01T04:00:05.986Z,131.22
2018-12-01T04:05:07.810Z,162.35
2018-12-01T04:07:39.734Z,121.30
2018-12-01T04:10:12.665Z,121.07
2018-12-01T04:12:44.470Z,107.27
2018-12-01T04:15:17.326Z,163.68
2018-12-01T04:17:51.319Z,84.70
2018-12-01T04:20:25.460Z,169.32
2018-12-01T04:23:02.611Z,118.60
2018-12-01T04:25:33.230Z,102.50
2018-12-01T04:28:12.111Z,197.37
2018-12-01T04:30:47.410Z,127.62
2018-12-01T04:33:23.194Z,88.75
2018-12-01T04:35:55.858Z,190.70
2018-12-01T04:38:32.226Z,123.92
2018-12-01T04:41:02.558Z,158.65
2018-12-01T04:43:35.110Z,224.47
2018-12-01T04:46:07.130Z,139.05
2018-12-01T04:48:39.330Z,125.47
2018-12-01T04:51:11.771Z,131.75
2018-12-01T04:53:45.950Z,104.47
2018-12-01T04:56:29.477Z,132.32
2018-12-01T04:59:02.714Z,118.20
2018-12-01T05:01:34.666Z,116.55
2018-12-01T05:04:05.686Z,90.65
2018-12-01T05:06:37.390Z,86.15
2018-12-01T05:09:09.534Z,81.30
2018-12-01T05:11:42.990Z,55.43
2018-12-01T05:14:20.881Z,46.48
2018-12-01T05:16:54.330Z,53.02
2018-12-01T05:19:25.955Z,49.03
2018-12-01T05:21:57.541Z,61.53
2018-12-01T05:24:30.677Z,39.67
2018-12-01T05:27:08.092Z,60.30
2018-12-01T05:29:40.954Z,52.13
2018-12-01T05:34:52.262Z,42.43
2018-12-01T05:37:23.826Z,61.23
2018-12-01T05:39:59.246Z,47.95
2018-12-01T05:42:34.658Z,44.93
2018-12-01T05:45:11.442Z,46.88
2018-12-01T05:47:42.778Z,53.52
2018-12-01T05:50:13.957Z,46.98
2018-12-01T05:52:43.943Z,57.08
2018-12-01T05:55:18.086Z,45.85
2018-12-01T05:57:50.787Z,48.92
2018-12-01T06:00:27.782Z,39.50
2018-12-01T06:02:58.414Z,58.00
2018-12-01T06:05:30.043Z,55.50
2018-12-01T06:08:04.698Z,51.53
2018-12-01T06:10:40.953Z,55.88
2018-12-01T06:13:12.330Z,64.77
2018-12-01T06:15:48.142Z,39.90
2018-12-01T06:18:19.330Z,44.77
2018-12-01T06:20:49.486Z,42.75
2018-12-01T06:23:24.776Z,53.02
2018-12-01T06:25:57.579Z,48.52
2018-12-01T06:28:31.654Z,50.40
2018-12-01T06:31:07.891Z,49.30
2018-12-01T06:33:40.230Z,51.42
2018-12-01T06:36:13.110Z,42.58
2018-12-01T06:38:42.990Z,45.17
2018-12-01T06:41:13.830Z,53.40
2018-12-01T06:43:45.922Z,51.50
2018-12-01T06:46:18.587Z,51.70
2018-12-01T06:48:48.259Z,67.67
2018-12-01T06:51:18.814Z,51.23
2018-12-01T06:53:50.550Z,51.30
2018-12-01T06:56:25.711Z,62.75
2018-12-01T06:58:59.062Z,51.55
2018-12-01T07:01:31.894Z,46.20
2018-12-01T07:04:05.499Z,51.23
2018-12-01T07:06:35.059Z,51.02
2018-12-01T07:09:08.498Z,52.90
2018-12-01T07:11:38.346Z,48.30
2018-12-01T07:14:08.794Z,55.52
2018-12-01T07:16:41.530Z,53.20
2018-12-01T07:19:17.910Z,54.63
2018-12-01T07:21:49.418Z,69.15
2018-12-01T07:24:19.144Z,67.35
2018-12-01T07:26:48.822Z,62.05
2018-12-01T07:29:18.422Z,88.62
2018-12-01T07:31:48.162Z,66.45
2018-12-01T07:34:19.034Z,70.15
2018-12-01T07:36:49.618Z,43.28
2018-12-01T07:39:20.346Z,55.23
2018-12-01T07:41:50.997Z,55.17
2018-12-01T07:44:21.804Z,62.17
2018-12-01T07:46:52.579Z,51.60
2018-12-01T07:49:22.367Z,54.33
2018-12-01T07:51:52.259Z,59.42
2018-12-01T07:54:23.115Z,55.43
2018-12-01T07:56:53.931Z,60.83
2018-12-01T07:59:24.803Z,52.25
2018-12-01T08:01:56.607Z,70.62
2018-12-01T08:04:28.491Z,53.28
2018-12-01T08:06:59.054Z,52.50
2018-12-01T08:09:28.756Z,56.68
2018-12-01T08:12:02.007Z,53.35
2018-12-01T08:14:32.794Z,48.68
2018-12-01T08:17:02.688Z,60.73
2018-12-01T08:19:32.600Z,42.98
2018-12-01T08:22:04.256Z,43.30
2018-12-01T08:24:34.043Z,44.25
2018-12-01T08:27:07.599Z,38.02
2018-12-01T08:29:43.516Z,53.78
2018-12-01T08:32:13.447Z,43.85
2018-12-01T08:34:43.103Z,55.45
2018-12-01T08:37:18.348Z,41.80
2018-12-01T08:39:47.931Z,40.88
2018-12-01T08:42:17.496Z,40.38
2018-12-01T08:44:47.012Z,47.43
2018-12-01T08:47:16.824Z,42.80
2018-12-01T08:49:56.672Z,44.35
2018-12-01T08:52:26.439Z,43.08
2018-12-01T08:54:58.187Z,45.48
2018-12-01T08:57:32.092Z,38.10
2018-12-01T09:00:01.936Z,32.83
2018-12-01T09:02:31.796Z,52.30
2018-12-01T09:05:03.639Z,37.15
2018-12-01T09:07:34.562Z,45.35
2018-12-01T09:10:08.912Z,39.83
2018-12-01T09:12:39.455Z,39.27
2018-12-01T09:15:11.523Z,34.43
2018-12-01T09:17:48.137Z,31.23
2018-12-01T09:20:21.759Z,39.65
2018-12-01T09:22:53.554Z,36.00
2018-12-01T09:25:27.413Z,38.05
2018-12-01T09:27:57.176Z,47.80
2018-12-01T09:30:32.349Z,39.48
2018-12-01T09:33:09.756Z,43.45
2018-12-01T09:35:39.659Z,40.55
2018-12-01T09:38:10.496Z,45.45
2018-12-01T09:40:40.400Z,40.83
2018-12-01T09:43:16.003Z,37.53
2018-12-01T09:45:51.464Z,37.50
2018-12-01T09:48:24.132Z,50.60
2018-12-01T09:50:54.726Z,39.27
2018-12-01T09:53:25.187Z,40.48
2018-12-01T09:55:56.044Z,43.75
2018-12-01T09:58:26.836Z,42.73
2018-12-01T10:00:56.556Z,46.30
2018-12-01T10:03:26.340Z,34.23
2018-12-01T10:05:57.256Z,31.97
2018-12-01T10:08:27.160Z,45.43
2018-12-01T10:10:58.036Z,33.00
2018-12-01T10:13:27.932Z,41.35
2018-12-01T10:16:03.908Z,54.10
2018-12-01T10:18:39.104Z,44.00
2018-12-01T10:21:08.724Z,43.23
2018-12-01T10:23:38.324Z,35.10
2018-12-01T10:26:17.076Z,41.57
2018-12-01T10:28:46.872Z,31.50
2018-12-01T10:31:16.757Z,41.00
2018-12-01T10:33:50.356Z,42.27
2018-12-01T10:36:20.576Z,48.27
2018-12-01T10:38:50.388Z,37.10
2018-12-01T10:41:24.408Z,39.30
2018-12-01T10:43:54.228Z,33.03
2018-12-01T10:46:24.137Z,37.47
2018-12-01T10:48:54.036Z,30.47
2018-12-01T10:51:23.972Z,25.10
2018-12-01T10:53:54.596Z,24.30
2018-12-01T10:56:28.044Z,22.83
2018-12-01T10:58:58.963Z,17.93
2018-12-01T11:01:34.716Z,23.30
2018-12-01T11:04:10.891Z,30.20
2018-12-01T11:06:44.268Z,28.20
2018-12-01T11:09:14.163Z,25.03
2018-12-01T11:11:44.011Z,26.43
2018-12-01T11:14:13.804Z,19.10
2018-12-01T11:16:43.356Z,24.00
2018-12-01T11:19:16.236Z,23.73
2018-12-01T11:21:45.796Z,23.60
2018-12-01T11:24:15.552Z,13.83
2018-12-01T11:26:55.479Z,18.07
2018-12-01T11:29:29.540Z,17.30
2018-12-01T11:32:01.395Z,12.60
2018-12-01T11:34:32.248Z,15.30
2018-12-01T11:37:03.055Z,10.50
2018-12-01T11:39:32.611Z,13.70
2018-12-01T11:42:02.059Z,10.53
2018-12-01T11:44:31.898Z,12.20
2018-12-01T11:47:04.723Z,10.13
2018-12-01T11:49:42.647Z,8.20
2018-12-01T11:52:13.212Z,12.13
2018-12-01T11:54:46.692Z,13.27
2018-12-01T11:57:17.260Z,22.03
2018-12-01T11:59:47.988Z,7.63
2018-12-01T12:02:17.520Z,10.57
2018-12-01T12:04:52.064Z,5.57
2018-12-01T12:07:39.960Z,5.50
2018-12-01T12:10:09.612Z,4.37
2018-12-01T12:12:39.312Z,4.27
2018-12-01T12:15:09.880Z,7.80
2018-12-01T12:17:39.732Z,9.90
2018-12-01T12:20:10.032Z,7.30
2018-12-01T12:22:39.763Z,8.60
2018-12-01T12:25:10.175Z,5.70
2018-12-01T12:27:40.932Z,7.03
2018-12-01T12:30:15.492Z,9.97
2018-12-01T12:32:46.486Z,6.60
2018-12-01T12:35:16.828Z,7.57
2018-12-01T12:37:46.602Z,6.97
2018-12-01T12:40:25.916Z,5.83
2018-12-01T12:42:59.248Z,3.90
2018-12-01T12:45:28.936Z,9.17
2018-12-01T12:47:58.712Z,5.73
2018-12-01T12:50:28.319Z,10.03
2018-12-01T12:52:58.171Z,13.00
2018-12-01T12:55:29.876Z,8.70
2018-12-01T12:57:59.679Z,8.57
2018-12-01T13:00:29.269Z,10.63
2018-12-01T13:03:02.536Z,4.70
2018-12-01T13:05:37.694Z,5.40
2018-12-01T13:08:07.987Z,11.27
2018-12-01T13:10:37.816Z,9.63
2018-12-01T13:13:07.557Z,8.47
2018-12-01T13:15:37.904Z,7.27
2018-12-01T13:18:09.876Z,8.57
2018-12-01T13:20:39.765Z,3.97
2018-12-01T13:23:09.450Z,7.60
2018-12-01T13:25:40.391Z,8.00
2018-12-01T13:28:13.468Z,11.80
2018-12-01T13:30:46.473Z,15.87
2018-12-01T13:33:16.331Z,7.20
2018-12-01T13:35:46.252Z,10.17
2018-12-01T13:38:16.353Z,15.60
2018-12-01T13:40:46.036Z,16.47
2018-12-01T13:43:15.528Z,9.27
2018-12-01T13:45:46.112Z,10.57
2018-12-01T13:48:15.681Z,15.70
2018-12-01T13:50:45.268Z,14.70
2018-12-01T13:53:15.225Z,12.53
2018-12-01T13:55:44.815Z,16.83
2018-12-01T13:58:14.348Z,7.43
2018-12-01T14:00:44.196Z,11.13
2018-12-01T14:03:13.856Z,13.10
2018-12-01T14:05:43.475Z,13.07
2018-12-01T14:08:13.067Z,13.17
2018-12-01T14:10:47.620Z,11.63
2018-12-01T14:13:17.476Z,18.23
2018-12-01T14:15:47.324Z,14.23
2018-12-01T14:18:17.288Z,13.13
2018-12-01T14:20:47.159Z,16.80
2018-12-01T14:23:16.822Z,16.13
2018-12-01T14:25:46.561Z,17.00
2018-12-01T14:28:16.380Z,16.40
2018-12-01T14:30:47.323Z,10.40
2018-12-01T14:33:16.924Z,17.03
2018-12-01T14:35:52.391Z,14.23
2018-12-01T14:38:23.348Z,12.43
2018-12-01T14:40:53.083Z,16.73
2018-12-01T14:43:22.589Z,14.40
2018-12-01T14:45:54.084Z,15.68
2018-12-01T14:48:23.652Z,17.85
2018-12-01T14:50:53.176Z,11.33
2018-12-01T14:53:24.052Z,10.60
2018-12-01T14:55:53.956Z,20.15
2018-12-01T14:58:23.603Z,18.10
2018-12-01T15:00:53.108Z,13.98
2018-12-01T15:03:22.824Z,21.05
2018-12-01T15:05:52.431Z,13.13
2018-12-01T15:08:22.166Z,27.70
2018-12-01T15:10:54.060Z,15.23
2018-12-01T15:13:23.855Z,16.90
2018-12-01T15:15:53.524Z,11.20
2018-12-01T15:18:23.052Z,19.35
2018-12-01T15:20:52.636Z,10.45
2018-12-01T15:23:22.339Z,13.83
2018-12-01T15:25:52.127Z,10.45
2018-12-01T15:28:25.299Z,16.55
2018-12-01T15:30:54.915Z,15.40
2018-12-01T15:33:25.459Z,14.15
2018-12-01T15:35:54.985Z,21.62
2018-12-01T15:38:24.723Z,14.43
2018-12-01T15:40:54.631Z,16.07
2018-12-01T15:43:24.224Z,21.23
2018-12-01T15:45:54.677Z,21.12
2018-12-01T15:48:25.159Z,18.60
2018-12-01T15:50:54.931Z,12.20
2018-12-01T15:53:24.600Z,21.87
2018-12-01T15:55:54.444Z,15.48
2018-12-01T15:58:24.135Z,14.00
2018-12-01T16:00:54.072Z,15.65
2018-12-01T16:03:23.676Z,21.57
2018-12-01T16:05:53.488Z,20.27
2018-12-01T16:08:23.383Z,19.17
2018-12-01T16:10:53.100Z,20.52
2018-12-01T16:13:24.499Z,24.90
2018-12-01T16:15:58.323Z,18.92
2018-12-01T16:18:28.175Z,17.82
2018-12-01T16:20:57.929Z,21.17
2018-12-01T16:23:27.691Z,16.15
2018-12-01T16:25:57.600Z,21.45
2018-12-01T16:28:27.271Z,24.07
2018-12-01T16:30:58.359Z,19.48
2018-12-01T16:33:28.271Z,21.80
2018-12-01T16:35:57.951Z,20.85
2018-12-01T16:38:31.392Z,18.65
2018-12-01T16:41:19.808Z,32.03
2018-12-01T16:43:49.647Z,31.50
2018-12-01T16:46:19.379Z,27.62
2018-12-01T16:48:49.204Z,22.32
2018-12-01T16:51:20.147Z,18.37
2018-12-01T16:53:49.999Z,22.55
2018-12-01T16:56:19.948Z,23.35
2018-12-01T16:58:49.651Z,28.95
2018-12-01T17:01:19.282Z,20.50
2018-12-01T17:03:49.001Z,26.48
2018-12-01T17:06:19.803Z,23.62
2018-12-01T17:08:51.044Z,26.25
2018-12-01T17:11:20.964Z,20.77
2018-12-01T17:13:55.340Z,23.77
2018-12-01T17:16:25.533Z,27.98
2018-12-01T17:18:55.369Z,24.15
2018-12-01T17:21:26.000Z,20.48
2018-12-01T17:23:55.819Z,24.72
2018-12-01T17:26:25.644Z,25.77
2018-12-01T17:28:55.535Z,23.20
2018-12-01T17:31:26.420Z,25.82
2018-12-01T17:33:56.282Z,23.02
2018-12-01T17:36:26.132Z,24.55
2018-12-01T17:38:56.932Z,24.07
2018-12-01T17:41:30.409Z,24.10
2018-12-01T17:44:03.904Z,21.82
2018-12-01T17:46:34.664Z,23.75
2018-12-01T17:49:04.784Z,26.85
2018-12-01T17:51:38.079Z,27.17
2018-12-01T17:54:15.965Z,30.77
2018-12-01T17:56:45.852Z,25.95
2018-12-01T17:59:17.411Z,22.25
2018-12-01T18:01:48.191Z,22.65
2018-12-01T18:04:20.056Z,20.62
2018-12-01T18:06:50.864Z,20.85
2018-12-01T18:09:20.684Z,22.95
2018-12-01T18:11:52.391Z,24.47
2018-12-01T18:14:22.160Z,29.63
2018-12-01T18:16:51.856Z,32.15
2018-12-01T18:19:21.379Z,24.87
2018-12-01T18:21:53.180Z,27.27
2018-12-01T18:24:24.101Z,31.07
2018-12-01T18:26:53.802Z,32.17
2018-12-01T18:29:24.416Z,35.25
2018-12-01T18:31:54.916Z,33.75
2018-12-01T18:34:24.677Z,53.85
2018-12-01T18:36:55.540Z,45.60
2018-12-01T18:39:27.479Z,97.75
2018-12-01T18:42:01.380Z,98.40
2018-12-01T18:44:35.160Z,84.58
2018-12-01T18:47:05.168Z,92.17
2018-12-01T18:49:36.691Z,67.62
2018-12-01T18:52:07.915Z,78.40
2018-12-01T18:54:40.121Z,90.42
2018-12-01T18:57:09.755Z,58.33
2018-12-01T18:59:41.810Z,53.65
2018-12-01T19:02:14.063Z,35.48
2018-12-01T19:04:44.464Z,37.60
2018-12-01T19:07:15.576Z,36.85
2018-12-01T19:09:46.328Z,31.17
2018-12-01T19:12:16.556Z,42.40
2018-12-01T19:14:51.260Z,37.25
2018-12-01T19:17:23.156Z,49.95
2018-12-01T19:19:55.250Z,37.35
2018-12-01T19:22:24.930Z,41.48
2018-12-01T19:25:01.585Z,35.90
2018-12-01T19:27:31.232Z,45.75
2018-12-01T19:30:05.371Z,49.53
2018-12-01T19:32:33.076Z,37.45
2018-12-01T19:35:04.996Z,38.60
2018-12-01T19:37:35.536Z,44.05
2018-12-01T19:40:16.925Z,37.28
2018-12-01T19:42:48.908Z,31.73
2018-12-01T19:45:18.848Z,36.53
2018-12-01T19:47:50.604Z,58.45
2018-12-01T19:50:37.068Z,57.08
2018-12-01T19:53:10.200Z,37.23
2018-12-01T19:55:42.684Z,52.80
2018-12-01T19:58:15.812Z,47.20
2018-12-01T20:00:54.551Z,57.45
2018-12-01T20:03:27.536Z,43.68
2018-12-01T20:05:57.845Z,33.98
2018-12-01T20:08:39.804Z,60.35
2018-12-01T20:11:23.079Z,65.40
2018-12-01T20:13:56.988Z,57.33
2018-12-01T20:16:36.592Z,43.05
2018-12-01T20:19:09.021Z,43.17
2018-12-01T20:21:41.120Z,38.88
2018-12-01T20:24:18.244Z,37.50
2018-12-01T20:26:50.716Z,52.38
2018-12-01T20:29:22.368Z,36.53
2018-12-01T20:31:55.997Z,41.98
2018-12-01T20:34:33.333Z,38.08
2018-12-01T20:37:15.192Z,49.10
2018-12-01T20:39:50.484Z,32.80
2018-12-01T20:42:22.868Z,40.85
2018-12-01T20:47:34.282Z,35.40
2018-12-01T20:50:10.696Z,37.35
2018-12-01T20:55:34.072Z,44.50
2018-12-01T20:58:07.200Z,36.17
2018-12-01T21:00:37.953Z,36.98
2018-12-01T21:03:07.504Z,37.67
2018-12-01T21:05:38.917Z,45.52
2018-12-01T21:08:14.495Z,42.27
2018-12-01T21:10:51.416Z,42.08
2018-12-01T21:13:21.105Z,48.15
2018-12-01T21:15:56.588Z,38.30
2018-12-01T21:18:27.340Z,39.33
2018-12-01T21:20:58.452Z,40.15
2018-12-01T21:23:31.520Z,44.60
2018-12-01T21:26:02.604Z,36.88
2018-12-01T21:28:34.656Z,34.60
2018-12-01T21:31:05.256Z,44.20
2018-12-01T21:33:43.716Z,39.92
2018-12-01T21:36:18.489Z,32.00
2018-12-01T21:38:50.808Z,34.92
2018-12-01T21:41:23.881Z,39.67
2018-12-01T21:43:57.464Z,44.05
2018-12-01T21:46:34.232Z,30.65
2018-12-01T21:49:05.424Z,37.33
2018-12-01T21:51:43.814Z,36.10
2018-12-01T21:54:18.332Z,41.20
2018-12-01T21:56:49.884Z,36.33
2018-12-01T21:59:20.402Z,40.17
2018-12-01T22:01:52.468Z,32.75
2018-12-01T22:04:25.048Z,39.48
2018-12-01T22:06:54.697Z,38.70
2018-12-01T22:09:27.356Z,45.43
2018-12-01T22:11:57.976Z,34.00
2018-12-01T22:14:31.360Z,45.88
2018-12-01T22:17:02.312Z,42.35
2018-12-01T22:19:34.324Z,35.15
2018-12-01T22:22:05.953Z,40.03
2018-12-01T22:24:38.780Z,40.23
2018-12-01T22:27:11.871Z,40.10
2018-12-01T22:29:43.883Z,30.37
2018-12-01T22:32:16.360Z,30.52
2018-12-01T22:34:49.728Z,37.05
2018-12-01T22:37:28.284Z,28.00
2018-12-01T22:39:59.867Z,35.52
2018-12-01T22:42:34.624Z,33.65
2018-12-01T22:45:07.572Z,31.85
2018-12-01T22:47:39.248Z,30.10
2018-12-01T22:50:14.940Z,33.70
2018-12-01T22:52:44.833Z,34.33
2018-12-01T22:55:18.789Z,29.18
2018-12-01T22:58:23.324Z,35.23
2018-12-01T23:00:57.940Z,27.60
2018-12-01T23:03:29.877Z,29.60
2018-12-01T23:05:59.648Z,32.38
2018-12-01T23:08:41.789Z,36.80
2018-12-01T23:11:17.728Z,27.32
2018-12-01T23:13:58.843Z,33.40
2018-12-01T23:16:31.820Z,27.00
2018-12-01T23:19:07.236Z,32.83
2018-12-01T23:21:37.692Z,34.08
2018-12-01T23:24:07.324Z,27.87
2018-12-01T23:26:44.748Z,31.05
2018-12-01T23:29:15.036Z,30.62
2018-12-01T23:31:47.061Z,30.27
2018-12-01T23:34:17.312Z,25.10
2018-12-01T23:36:50.616Z,29.55
2018-12-01T23:39:40.017Z,28.10
2018-12-01T23:42:10.924Z,38.00
2018-12-01T23:44:45.141Z,25.97
2018-12-01T23:47:15.012Z,25.43
2018-12-01T23:49:46.800Z,25.45
2018-12-01T23:52:17.444Z,29.45
2018-12-01T23:54:48.040Z,31.82
2018-12-01T23:57:17.644Z,33.50
2018-12-01T23:59:47.128Z,25.17
